Casselton, North Dakota
Current Conditions -  °F | °C
As of 5:53 PM on Friday 28 Nov 2014 (Local Time) from KFAR Reporting Station
Clear Clear  
Wind Chill:   Ceiling: Unl
Heat Index: 17°   Visibility: 10mi
Dew Point:   Wind: 7mph
Humidity: 71%   Direction: 110°ESE
Pressure: 29.75"   Gusts: NA
Location:  46.9°N, 97.21°W
Report Text: KFAR 282353Z 11006KT 10SM CLR M08/M13 A2975 RMK AO2 SLP092 60001 T10831128 11072 21089 56017
Loading
Personal Weather Stations






























Interactive Weather Map New forecast layout! Learn more

10-Day Weather Forecast

Advertisements
Track Severe Weather on mobile